CST,Max TemperatureF,Mean TemperatureF,Min TemperatureF,Max Dew PointF,MeanDew PointF,Min DewpointF,Max Humidity, Mean Humidity, Min Humidity, Max Sea Level PressureIn, Mean Sea Level PressureIn, Min Sea Level PressureIn, Max VisibilityMiles, Mean VisibilityMiles, Min VisibilityMiles, Max Wind SpeedMPH, Mean Wind SpeedMPH, Max Gust SpeedMPH,PrecipitationIn, CloudCover, Events, WindDirDegrees
2012-11-1,86,70,55,52,46,41,72,51,20,30.06,29.99,29.92,15,11,10,13,1,,0.00,0,,194
2012-11-2,86,74,62,57,50,43,68,48,23,30.13,29.95,29.90,15,11,10,13,6,22,0.00,0,,199
2012-11-3,82,73,64,63,55,36,83,58,33,30.12,30.02,29.95,15,11,7,12,8,18,0.00,1,,202
2012-11-4,73,64,55,46,40,36,55,45,31,30.15,30.10,30.05,15,11,10,8,4,,0.00,0,,4
2012-11-5,75,64,53,57,44,27,100,61,22,30.12,30.07,30.02,15,10,1,17,4,25,0.00,1,Fog,1
2012-11-6,71,60,48,45,38,34,66,51,29,30.18,30.11,30.06,15,11,10,6,3,,0.00,0,,351
2012-11-7,73,62,50,43,36,28,76,42,20,30.20,30.13,30.08,15,11,10,13,4,20,0.00,0,,88
2012-11-8,78,66,55,55,45,32,64,49,34,30.12,30.04,29.96,20,12,10,21,12,34,0.00,1,,151
2012-11-9,82,73,64,61,54,46,83,59,37,30.04,29.99,29.92,15,11,10,24,13,34,0.00,2,,177
2012-11-10,78,72,66,59,57,54,78,60,44,30.00,29.92,29.85,20,12,10,28,16,39,0.00,3,,169
2012-11-11,73,58,42,63,52,32,88,70,50,30.29,29.98,29.78,20,11,7,23,16,34,0.00,6,Rain,246
2012-11-12,55,45,35,32,24,14,75,50,20,30.52,30.43,30.29,20,11,10,12,7,20,0.00,0,,21
2012-11-13,57,48,39,28,24,16,61,42,21,30.53,30.44,30.36,20,12,10,12,3,17,0.00,3,,98
2012-11-14,60,50,41,30,27,23,65,41,25,30.45,30.36,30.29,15,11,4,10,4,,0.00,2,,118
2012-11-15,62,52,42,32,29,25,61,46,26,30.35,30.29,30.03,15,11,10,10,8,,0.00,2,,117
2012-11-16,64,52,41,34,32,27,76,51,26,30.43,30.36,30.33,15,11,10,9,3,,0.00,0,,94
2012-11-17,64,53,42,32,29,25,61,44,24,30.43,30.34,30.29,15,11,7,9,5,,0.00,1,,120
2012-11-18,68,58,48,37,33,30,58,43,26,30.31,30.25,30.20,13,11,10,13,8,21,0.00,2,,139
2012-11-19,69,63,57,52,43,30,68,51,31,30.32,30.18,30.12,15,11,10,14,9,21,0.00,4,,153
2012-11-20,77,65,53,55,51,48,88,63,36,30.21,30.17,30.13,20,12,10,8,4,,0.00,0,,123
2012-11-21,78,66,53,55,47,41,100,60,29,30.28,30.19,30.12,15,11,10,14,3,16,0.00,1,,144
2012-11-22,75,65,55,54,46,41,67,52,31,30.14,30.10,30.03,20,12,10,18,9,28,0.00,2,,164
2012-11-23,64,55,46,52,33,18,77,44,18,30.44,30.31,30.11,20,12,10,21,9,32,0.00,2,,25
2012-11-24,59,48,37,21,19,16,52,34,20,30.44,30.31,30.11,20,12,10,12,5,15,0.00,0,,113
2012-11-25,73,60,46,52,34,21,64,41,29,30.10,29.96,29.85,20,11,10,18,10,28,0.00,0,,168
2012-11-26,73,60,46,61,46,32,100,65,31,30.27,30.02,29.87,15,11,8,23,11,32,0.00,2,,258
2012-11-27,53,47,41,36,32,27,76,59,49,30.45,30.34,30.27,15,11,10,16,9,21,0.00,5,,346
2012-11-28,64,52,39,39,35,32,87,60,30,30.44,30.33,30.26,15,11,10,14,4,20,0.00,0,,147
2012-11-29,68,56,44,46,38,34,76,54,28,30.26,30.19,30.11,20,12,10,16,9,24,0.00,1,,162
2012-11-30,73,64,55,63,55,48,100,78,57,30.15,30.09,30.03,11,9,7,17,11,23,0.00,3,,163